createdAt,value
2023-03-05T00:02:23.341Z,99860.22
2023-03-05T00:05:11.300Z,99868.06
2023-03-05T00:07:58.936Z,99862.28
2023-03-05T00:10:46.526Z,99843.59
2023-03-05T00:13:34.940Z,99869.91
2023-03-05T00:16:23.663Z,99848.06
2023-03-05T00:19:11.789Z,99866.00
2023-03-05T00:21:59.526Z,99837.91
2023-03-05T00:24:50.240Z,99831.63
2023-03-05T00:27:37.879Z,99838.09
2023-03-05T00:30:25.538Z,99835.03
2023-03-05T00:33:14.320Z,99846.94
2023-03-05T00:36:06.770Z,99838.75
2023-03-05T00:38:55.328Z,99831.19
2023-03-05T00:41:43.363Z,99834.41
2023-03-05T00:44:33.802Z,99775.06
2023-03-05T00:47:23.996Z,99817.25
2023-03-05T00:50:12.052Z,99822.09
2023-03-05T00:52:59.870Z,99805.38
2023-03-05T00:55:47.821Z,99805.91
2023-03-05T00:58:35.664Z,99811.72
2023-03-05T01:01:24.058Z,99804.84
2023-03-05T01:04:11.711Z,99811.28
2023-03-05T01:06:59.522Z,99775.53
2023-03-05T01:09:47.156Z,99798.78
2023-03-05T01:12:34.856Z,99770.28
2023-03-05T01:15:23.916Z,99805.13
2023-03-05T01:18:11.599Z,99762.28
2023-03-05T01:20:59.249Z,99791.97
2023-03-05T01:23:49.960Z,99797.66
2023-03-05T01:26:37.758Z,99792.41
2023-03-05T01:29:25.564Z,99783.16
2023-03-05T01:32:13.519Z,99787.66
2023-03-05T01:35:02.549Z,99791.16
2023-03-05T01:37:50.320Z,99811.31
2023-03-05T01:40:37.930Z,99797.66
2023-03-05T01:43:31.008Z,99796.69
2023-03-05T01:46:35.196Z,99797.13
2023-03-05T01:49:36.586Z,99767.63
2023-03-05T01:52:27.782Z,99799.06
2023-03-05T01:55:19.737Z,99793.00
2023-03-05T01:58:11.876Z,99788.94
2023-03-05T02:00:59.639Z,99774.22
2023-03-05T02:03:48.712Z,99797.94
2023-03-05T02:06:38.884Z,99780.28
2023-03-05T02:09:28.972Z,99791.22
2023-03-05T02:12:17.244Z,99771.56
2023-03-05T02:15:06.603Z,99780.91
2023-03-05T02:17:54.228Z,99786.72
2023-03-05T02:20:48.931Z,99789.47
2023-03-05T02:23:38.432Z,99774.03
2023-03-05T02:26:26.098Z,99775.53
2023-03-05T02:29:19.204Z,99788.53
2023-03-05T02:32:07.254Z,99783.88
2023-03-05T02:34:54.939Z,99758.19
2023-03-05T02:37:43.465Z,99800.63
2023-03-05T02:40:31.103Z,99776.53
2023-03-05T02:43:18.950Z,99803.84
2023-03-05T02:46:06.988Z,99815.91
2023-03-05T02:48:54.817Z,99777.66
2023-03-05T02:51:42.496Z,99814.59
2023-03-05T02:54:30.514Z,99771.88
2023-03-05T02:57:18.981Z,99799.84
2023-03-05T03:00:07.330Z,99775.84
2023-03-05T03:02:55.272Z,99794.69
2023-03-05T03:05:43.290Z,99787.59
2023-03-05T03:08:31.017Z,99788.75
2023-03-05T03:11:19.035Z,99783.94
2023-03-05T03:14:06.752Z,99787.13
2023-03-05T03:16:54.468Z,99788.91
2023-03-05T03:19:43.156Z,99782.78
2023-03-05T03:22:30.849Z,99794.06
2023-03-05T03:25:20.733Z,99789.88
2023-03-05T03:28:12.664Z,99787.94
2023-03-05T03:31:00.343Z,99783.13
2023-03-05T03:33:48.652Z,99774.44
2023-03-05T03:36:36.326Z,99780.72
2023-03-05T03:39:25.693Z,99754.03
2023-03-05T03:42:13.322Z,99778.94
2023-03-05T03:45:02.601Z,99780.38
2023-03-05T03:47:51.937Z,99790.34
2023-03-05T03:50:40.850Z,99785.84
2023-03-05T03:53:28.409Z,99782.00
2023-03-05T03:56:16.202Z,99778.94
2023-03-05T03:59:03.896Z,99780.22
2023-03-05T06:39:06.269Z,99795.78
2023-03-05T06:41:53.933Z,99797.56
2023-03-05T06:44:48.397Z,99812.59
2023-03-05T06:47:37.193Z,99818.94
2023-03-05T06:50:24.914Z,99804.56
2023-03-05T06:53:12.539Z,99813.38
2023-03-05T06:56:02.265Z,99822.81
2023-03-05T06:58:54.755Z,99814.94
2023-03-05T07:01:46.257Z,99816.56
2023-03-05T07:04:34.054Z,99817.94
2023-03-05T07:07:21.696Z,99811.81
2023-03-05T07:10:09.782Z,99787.03
2023-03-05T07:12:57.733Z,99776.84
2023-03-05T07:15:46.548Z,99817.56
2023-03-05T07:18:34.310Z,99809.38
2023-03-05T07:21:25.033Z,99810.44
2023-03-05T07:24:13.856Z,99815.78
2023-03-05T07:27:01.543Z,99809.47
2023-03-05T07:29:52.214Z,99810.50
2023-03-05T07:32:40.218Z,99805.34
2023-03-05T07:35:27.908Z,99804.50
2023-03-05T07:38:15.717Z,99787.56
2023-03-05T07:41:13.728Z,99806.25
2023-03-05T07:44:01.440Z,99798.00
2023-03-05T07:46:49.071Z,99767.53
2023-03-05T07:49:36.841Z,99793.91
2023-03-05T07:52:24.620Z,99800.31
2023-03-05T07:55:12.438Z,99797.53
2023-03-05T07:58:00.245Z,99791.94
2023-03-05T08:00:47.984Z,99796.19
2023-03-05T08:03:35.753Z,99793.97
2023-03-05T08:06:23.540Z,99802.19
2023-03-05T08:09:11.156Z,99802.44
2023-03-05T08:11:59.689Z,99766.50
2023-03-05T08:14:48.190Z,99797.75
2023-03-05T08:17:35.885Z,99794.06
2023-03-05T08:20:26.848Z,99789.38
2023-03-05T08:23:17.597Z,99796.28
2023-03-05T08:26:13.175Z,99758.47
2023-03-05T08:29:03.567Z,99769.66
2023-03-05T08:31:51.851Z,99779.16
2023-03-05T08:34:39.574Z,99753.31
2023-03-05T08:37:27.470Z,99763.84
2023-03-05T08:40:18.191Z,99756.53
2023-03-05T08:43:07.573Z,99775.16
2023-03-05T08:45:55.557Z,99781.38
2023-03-05T08:48:43.681Z,99765.72
2023-03-05T08:51:31.413Z,99758.81
2023-03-05T08:54:19.074Z,99750.81
2023-03-05T08:57:06.812Z,99737.84
2023-03-05T08:59:54.540Z,99773.75
2023-03-05T09:02:42.322Z,99778.22
2023-03-05T09:05:30.085Z,99781.88
2023-03-05T09:08:19.470Z,99758.69
2023-03-05T09:14:40.939Z,99779.88
2023-03-05T09:24:16.224Z,99768.78
2023-03-05T09:27:38.913Z,99756.81
2023-03-05T09:32:44.238Z,99676.59
2023-03-05T09:34:35.125Z,99774.41
2023-03-05T09:37:23.809Z,99737.81
2023-03-05T09:40:27.457Z,99752.31
2023-03-05T09:43:46.405Z,99755.09
2023-03-05T09:46:45.096Z,99762.69
2023-03-05T09:55:27.085Z,99643.09
2023-03-05T09:58:19.092Z,99680.34
2023-03-05T10:01:12.358Z,99734.16
2023-03-05T10:04:15.253Z,99725.91
2023-03-05T10:07:18.176Z,99714.13
2023-03-05T10:10:17.696Z,99710.72
2023-03-05T10:13:17.064Z,99704.75
2023-03-05T10:16:11.634Z,99703.84
2023-03-05T10:19:25.345Z,99701.94
2023-03-05T10:22:20.994Z,99676.88
2023-03-05T10:25:19.336Z,99674.06
2023-03-05T10:28:20.430Z,99685.78
2023-03-05T10:31:13.947Z,99684.94
2023-03-05T10:34:28.080Z,99672.75
2023-03-05T10:37:53.539Z,99676.72
2023-03-05T10:40:51.509Z,99670.78
2023-03-05T10:44:17.185Z,99667.31
2023-03-05T10:47:26.075Z,99681.09
2023-03-05T10:50:21.130Z,99647.72
2023-03-05T10:53:37.378Z,99665.81
2023-03-05T10:56:29.790Z,99639.50
2023-03-05T10:59:17.369Z,99650.91
2023-03-05T11:02:09.727Z,99654.38
2023-03-05T11:04:57.637Z,99641.34
2023-03-05T11:07:45.382Z,99637.06
2023-03-05T11:10:33.178Z,99597.72
2023-03-05T11:13:33.328Z,99599.38
2023-03-05T11:16:30.185Z,99619.63
2023-03-05T11:19:33.951Z,99627.88
2023-03-05T11:22:44.072Z,99628.28
2023-03-05T11:25:48.113Z,99598.22
2023-03-05T11:28:38.933Z,99605.78
2023-03-05T11:31:31.688Z,99590.22
2023-03-05T11:34:19.496Z,99609.78
2023-03-05T11:37:21.029Z,99584.69
2023-03-05T11:40:18.214Z,99596.91
2023-03-05T11:43:06.034Z,99594.13
2023-03-05T11:46:02.807Z,99595.25
2023-03-05T11:48:55.303Z,99586.28
2023-03-05T11:52:08.426Z,99577.19
2023-03-05T11:55:07.341Z,99582.53
2023-03-05T11:58:22.556Z,99559.69
2023-03-05T12:01:22.329Z,99563.31
2023-03-05T12:04:10.118Z,99550.97
2023-03-05T12:07:01.901Z,99555.00
2023-03-05T12:09:52.466Z,99549.75
2023-03-05T12:12:57.034Z,99543.06
2023-03-05T12:16:03.485Z,99539.38
2023-03-05T12:19:00.842Z,99535.31
2023-03-05T12:21:51.354Z,99523.88
2023-03-05T12:24:39.608Z,99526.41
2023-03-05T12:27:37.182Z,99528.38
2023-03-05T12:30:42.702Z,99533.97
2023-03-05T12:33:42.032Z,99520.00
2023-03-05T12:36:35.470Z,99529.16
2023-03-05T12:39:47.920Z,99518.88
2023-03-05T12:42:44.277Z,99523.59
2023-03-05T12:45:42.716Z,99515.72
2023-03-05T12:48:30.784Z,99525.56
2023-03-05T12:51:40.880Z,99512.41
2023-03-05T12:54:35.587Z,99513.19
2023-03-05T12:57:26.781Z,99510.41
2023-03-05T13:00:23.698Z,99512.47
2023-03-05T13:03:21.250Z,99491.41
2023-03-05T13:06:28.411Z,99500.47
2023-03-05T13:09:24.680Z,99512.31
2023-03-05T13:12:14.458Z,99497.16
2023-03-05T13:15:07.984Z,99501.91
2023-03-05T13:18:01.389Z,99487.66
2023-03-05T13:20:52.377Z,99475.75
2023-03-05T13:23:49.321Z,99492.78
2023-03-05T13:26:40.129Z,99493.19
2023-03-05T13:29:31.570Z,99482.91
2023-03-05T13:32:30.798Z,99480.59
2023-03-05T13:35:20.990Z,99469.44
2023-03-05T13:38:25.593Z,99454.25
2023-03-05T13:41:25.989Z,99445.53
2023-03-05T13:44:22.243Z,99442.44
2023-03-05T13:47:21.111Z,99464.25
2023-03-05T13:50:23.709Z,99465.38
2023-03-05T13:53:37.872Z,99471.69
2023-03-05T13:56:25.506Z,99473.66
2023-03-05T13:59:18.965Z,99468.38
2023-03-05T14:02:20.766Z,99470.03
2023-03-05T14:05:15.715Z,99448.19
2023-03-05T14:08:03.900Z,99481.00
2023-03-05T14:10:53.160Z,99471.75
2023-03-05T14:13:41.400Z,99481.63
2023-03-05T14:16:32.963Z,99477.63
2023-03-05T14:19:29.734Z,99484.03
2023-03-05T14:22:34.274Z,99482.38
2023-03-05T14:25:38.935Z,99468.72
2023-03-05T14:28:29.512Z,99464.31
2023-03-05T14:31:18.905Z,99477.31
2023-03-05T14:34:08.255Z,99491.50
2023-03-05T14:37:00.252Z,99469.44
2023-03-05T14:39:55.624Z,99476.88
2023-03-05T14:43:02.414Z,99478.72
2023-03-05T14:45:50.235Z,99490.13
2023-03-05T14:48:38.016Z,99479.53
2023-03-05T14:51:25.934Z,99477.53
2023-03-05T14:54:22.811Z,99483.84
2023-03-05T14:57:23.228Z,99478.59
2023-03-05T15:00:25.965Z,99457.38
2023-03-05T15:03:15.763Z,99421.75
2023-03-05T15:06:07.408Z,99496.47
2023-03-05T15:08:55.148Z,99494.66
2023-03-05T15:11:42.740Z,99487.13
2023-03-05T15:14:36.789Z,99493.69
2023-03-05T15:17:37.673Z,99491.53
2023-03-05T15:20:27.972Z,99512.31
2023-03-05T15:23:16.312Z,99498.75
2023-03-05T15:26:06.577Z,99499.38
2023-03-05T15:28:54.292Z,99512.28
2023-03-05T15:31:41.958Z,99514.41
2023-03-05T15:34:30.098Z,99495.47
2023-03-05T15:37:17.779Z,99436.88
2023-03-05T15:40:09.127Z,99507.81
2023-03-05T15:42:58.461Z,99489.28
2023-03-05T15:45:46.424Z,99518.38
2023-03-05T15:48:34.112Z,99527.66
2023-03-05T15:51:22.065Z,99512.44
2023-03-05T15:54:09.904Z,99507.66
2023-03-05T15:57:19.756Z,99530.56
2023-03-05T16:00:41.257Z,99530.50
2023-03-05T16:03:35.116Z,99532.56
2023-03-05T16:06:24.501Z,99530.13
2023-03-05T16:09:12.771Z,99539.63
2023-03-05T16:12:04.443Z,99539.44
2023-03-05T16:14:53.038Z,99551.53
2023-03-05T16:17:44.075Z,99551.97
2023-03-05T16:20:33.016Z,99544.53
2023-03-05T16:23:22.179Z,99554.91
2023-03-05T16:26:10.857Z,99563.94
2023-03-05T16:29:01.078Z,99562.56
2023-03-05T16:31:48.744Z,99553.00
2023-03-05T16:34:36.507Z,99569.53
2023-03-05T16:37:25.354Z,99573.28
2023-03-05T16:40:16.425Z,99562.22
2023-03-05T16:43:04.495Z,99571.06
2023-03-05T16:45:52.260Z,99577.00
2023-03-05T16:48:39.972Z,99574.88
2023-03-05T16:51:27.779Z,99547.47
2023-03-05T16:54:15.536Z,99574.34
2023-03-05T16:57:03.426Z,99576.63
2023-03-05T16:59:51.879Z,99549.00
2023-03-05T17:02:39.693Z,99589.34
2023-03-05T17:05:28.399Z,99559.53
2023-03-05T17:08:19.334Z,99580.09
2023-03-05T17:11:06.967Z,99589.47
2023-03-05T17:13:54.740Z,99553.38
2023-03-05T17:16:52.664Z,99598.53
2023-03-05T17:19:40.605Z,99599.88
2023-03-05T17:22:28.223Z,99596.09
2023-03-05T17:25:15.962Z,99603.44
2023-03-05T17:28:04.083Z,99530.31
2023-03-05T17:30:51.914Z,99604.56
2023-03-05T17:33:41.810Z,99609.94
2023-03-05T17:36:31.015Z,99607.72
2023-03-05T17:39:19.327Z,99610.34
2023-03-05T17:42:07.157Z,99611.81
2023-03-05T17:44:59.393Z,99612.97
2023-03-05T17:47:47.066Z,99615.25
2023-03-05T17:50:39.029Z,99618.53
2023-03-05T17:53:27.211Z,99532.78
2023-03-05T17:56:22.276Z,99604.56
2023-03-05T17:59:10.056Z,99625.94
2023-03-05T18:01:58.979Z,99626.53
2023-03-05T18:04:48.173Z,99623.06
2023-03-05T18:07:35.939Z,99626.56
2023-03-05T18:10:28.881Z,99618.31
2023-03-05T18:13:16.422Z,99637.53
2023-03-05T18:16:04.421Z,99640.00
2023-03-05T18:18:52.768Z,99620.13
2023-03-05T18:21:41.494Z,99640.72
2023-03-05T18:24:29.071Z,99632.03
2023-03-05T18:27:17.041Z,99641.31
2023-03-05T18:30:05.191Z,99617.75
2023-03-05T18:32:53.102Z,99640.03
2023-03-05T18:35:42.183Z,99634.19
2023-03-05T18:38:31.694Z,99633.16
2023-03-05T18:41:27.713Z,99639.19
2023-03-05T18:44:15.930Z,99635.03
2023-03-05T18:47:03.480Z,99649.69
2023-03-05T18:49:54.517Z,99638.81
2023-03-05T18:52:42.934Z,99648.06
2023-03-05T18:55:32.845Z,99654.78
2023-03-05T18:58:20.461Z,99650.34
2023-03-05T19:01:09.588Z,99636.16
2023-03-05T19:03:57.608Z,99671.75
2023-03-05T19:06:45.257Z,99656.41
2023-03-05T19:09:53.835Z,99661.44
2023-03-05T19:13:21.851Z,99646.72
2023-03-05T19:16:24.277Z,99670.19
2023-03-05T19:19:20.656Z,99653.22
2023-03-05T19:22:08.704Z,99664.47
2023-03-05T19:24:56.580Z,99667.19
2023-03-05T19:27:44.253Z,99687.75
2023-03-05T19:30:32.126Z,99682.16
2023-03-05T19:33:19.929Z,99672.34
2023-03-05T19:36:10.176Z,99678.16
2023-03-05T19:38:57.828Z,99672.03
2023-03-05T19:41:47.943Z,99677.81
2023-03-05T19:44:37.730Z,99681.56
2023-03-05T19:47:26.291Z,99653.13
2023-03-05T19:50:15.217Z,99682.38
2023-03-05T19:53:02.964Z,99684.44
2023-03-05T19:55:50.634Z,99674.00
2023-03-05T19:58:41.866Z,99659.06
2023-03-05T20:01:29.609Z,99683.19
2023-03-05T20:04:20.891Z,99675.00
2023-03-05T20:07:10.638Z,99678.38
2023-03-05T20:09:58.495Z,99673.06
2023-03-05T20:12:48.427Z,99671.31
2023-03-05T20:15:36.281Z,99682.38
2023-03-05T20:18:24.718Z,99685.44
2023-03-05T20:21:16.262Z,99685.56
2023-03-05T20:24:10.860Z,99685.53
2023-03-05T20:26:58.805Z,99677.84
2023-03-05T20:29:46.614Z,99686.03
2023-03-05T20:32:34.438Z,99691.69
2023-03-05T20:35:22.127Z,99686.19
2023-03-05T20:38:25.520Z,99683.97
2023-03-05T20:41:16.946Z,99684.94
2023-03-05T20:44:05.556Z,99685.41
2023-03-05T20:47:15.608Z,99687.19
2023-03-05T20:50:11.655Z,99692.97
2023-03-05T20:52:59.553Z,99662.59
2023-03-05T20:55:47.632Z,99688.16
2023-03-05T20:58:35.261Z,99667.75
2023-03-05T21:01:23.054Z,99691.38
2023-03-05T21:04:10.716Z,99681.72
2023-03-05T21:06:58.569Z,99673.84
2023-03-05T21:09:46.311Z,99690.38
2023-03-05T21:12:34.174Z,99685.44
2023-03-05T21:15:24.902Z,99681.06
2023-03-05T21:18:12.705Z,99653.63
2023-03-05T21:21:00.488Z,99662.59
2023-03-05T21:23:48.251Z,99681.84
2023-03-05T21:26:36.215Z,99656.47
2023-03-05T21:29:26.894Z,99683.16
2023-03-05T21:32:17.356Z,99683.19
2023-03-05T21:35:05.577Z,99683.66
2023-03-05T21:37:53.180Z,99693.63
2023-03-05T21:40:45.634Z,99677.84
2023-03-05T21:43:33.752Z,99662.13
2023-03-05T21:46:21.575Z,99671.41
2023-03-05T21:49:09.323Z,99646.53
2023-03-05T21:52:09.457Z,99666.72
2023-03-05T21:54:59.310Z,99660.94
2023-03-05T21:57:47.168Z,99667.19
2023-03-05T22:00:35.701Z,99664.28
2023-03-05T22:03:23.455Z,99650.31
2023-03-05T22:06:15.765Z,99672.19
2023-03-05T22:09:03.856Z,99679.88
2023-03-05T22:11:51.460Z,99680.56
2023-03-05T22:14:39.223Z,99675.25
2023-03-05T22:17:26.834Z,99667.72
2023-03-05T22:20:14.776Z,99675.59
2023-03-05T22:23:02.563Z,99682.03
2023-03-05T22:26:04.823Z,99642.81
2023-03-05T22:28:52.426Z,99664.53
2023-03-05T22:31:40.858Z,99674.63
2023-03-05T22:34:29.170Z,99653.13
2023-03-05T22:37:16.982Z,99653.47
2023-03-05T22:40:05.012Z,99671.13
2023-03-05T22:42:52.861Z,99674.50
2023-03-05T22:45:40.875Z,99671.44
2023-03-05T22:48:28.577Z,99648.66
2023-03-05T22:51:17.430Z,99639.66
2023-03-05T22:54:05.396Z,99662.44
2023-03-05T22:56:53.106Z,99678.13
2023-03-05T22:59:40.945Z,99671.72
2023-03-05T23:02:28.525Z,99672.72
2023-03-05T23:05:17.075Z,99658.25
2023-03-05T23:08:10.189Z,99662.28
2023-03-05T23:11:10.780Z,99634.31
2023-03-05T23:13:58.420Z,99638.00
2023-03-05T23:16:46.302Z,99679.44
2023-03-05T23:19:39.727Z,99678.56
2023-03-05T23:22:31.127Z,99670.88
2023-03-05T23:25:18.967Z,99652.06
2023-03-05T23:28:06.782Z,99671.16
2023-03-05T23:30:54.439Z,99669.56
2023-03-05T23:33:42.421Z,99681.09
2023-03-05T23:36:30.025Z,99664.38
2023-03-05T23:39:17.746Z,99670.00
2023-03-05T23:42:05.507Z,99674.25
2023-03-05T23:44:54.969Z,99672.16
2023-03-05T23:47:43.126Z,99684.84
2023-03-05T23:50:33.782Z,99680.38
2023-03-05T23:53:27.400Z,99687.75
2023-03-05T23:56:15.337Z,99687.75
2023-03-05T23:59:02.971Z,99670.81
